Time;durP1;ratioP1;P1;durP2;ratioP2;P2;SDS_P1;SDS_P2;PMS_P1;PMS_P2;Temp;Humidity;BMP_temperature;BMP_pressure;BME280_temperature;BME280_humidity;BME280_pressure;Samples;Min_cycle;Max_cycle;Signal;HPM_P1;HPM_P2
2021/12/27 00:01:28;;;;;;;9.65;6.43;;;;;;;-2.55;72.19;100096.50;5032746;28;20033;-52
2021/12/27 00:03:56;;;;;;;7.57;5.45;;;;;;;-2.56;72.11;100079.25;5039575;28;20111;-52
2021/12/27 00:06:21;;;;;;;6.97;5.30;;;;;;;-2.54;72.20;100081.88;5036689;28;20055;-52
2021/12/27 00:08:46;;;;;;;9.20;5.85;;;;;;;-2.54;71.54;100081.88;5025984;28;20045;-52
2021/12/27 00:11:13;;;;;;;6.82;6.13;;;;;;;-2.55;71.79;100081.00;5011177;28;20029;-52
2021/12/27 00:13:39;;;;;;;9.25;6.22;;;;;;;-2.55;71.88;100074.94;5025726;28;20022;-51
2021/12/27 00:16:05;;;;;;;7.25;5.70;;;;;;;-2.54;71.85;100080.16;5021315;28;20029;-51
2021/12/27 00:18:30;;;;;;;6.13;5.50;;;;;;;-2.54;72.39;100084.47;5032863;28;20033;-52
2021/12/27 00:20:56;;;;;;;7.03;5.40;;;;;;;-2.55;71.99;100075.84;5006464;28;20021;-51
2021/12/27 00:23:21;;;;;;;7.35;5.22;;;;;;;-2.55;71.93;100070.66;5029775;28;20026;-51
2021/12/27 00:25:47;;;;;;;9.20;6.10;;;;;;;-2.58;72.29;100068.88;5024629;28;20064;-52
2021/12/27 00:28:12;;;;;;;7.97;6.43;;;;;;;-2.54;72.18;100074.16;5034224;28;20113;-52
2021/12/27 00:30:38;;;;;;;7.30;5.57;;;;;;;-2.54;72.23;100080.16;5032547;28;20029;-52
2021/12/27 00:33:05;;;;;;;8.18;5.70;;;;;;;-2.56;72.10;100068.91;5035099;28;20036;-52
2021/12/27 00:35:32;;;;;;;8.75;6.03;;;;;;;-2.55;71.99;100057.75;5031086;28;20033;-51
2021/12/27 00:37:58;;;;;;;9.10;6.07;;;;;;;-2.55;71.95;100054.28;5037881;28;20025;-52
2021/12/27 00:40:23;;;;;;;9.00;6.22;;;;;;;-2.54;71.86;100056.91;5036438;28;20526;-52
2021/12/27 00:42:50;;;;;;;7.60;5.68;;;;;;;-2.53;72.07;100058.69;5039306;28;20032;-52
2021/12/27 00:45:17;;;;;;;7.53;5.97;;;;;;;-2.53;72.23;100063.88;5032324;28;20034;-52
2021/12/27 00:47:43;;;;;;;11.40;6.57;;;;;;;-2.53;72.18;100063.88;5032358;28;20057;-52
2021/12/27 00:50:09;;;;;;;8.35;6.00;;;;;;;-2.53;72.03;100061.28;5041180;28;20048;-51
2021/12/27 00:52:35;;;;;;;7.63;5.10;;;;;;;-2.53;72.40;100063.88;5037367;28;20110;-51
2021/12/27 00:55:04;;;;;;;9.57;6.35;;;;;;;-2.53;71.81;100069.03;5033159;28;20032;-52
2021/12/27 00:57:29;;;;;;;8.98;5.93;;;;;;;-2.54;71.89;100067.25;5034587;28;20030;-51
2021/12/27 00:59:54;;;;;;;8.27;5.43;;;;;;;-2.52;72.42;100064.72;5032312;28;20036;-52
2021/12/27 01:02:20;;;;;;;6.45;5.43;;;;;;;-2.52;72.29;100062.13;5036228;28;20071;-52
2021/12/27 01:04:45;;;;;;;12.32;6.53;;;;;;;-2.52;72.11;100060.44;5036115;28;20022;-52
2021/12/27 01:07:10;;;;;;;8.05;6.15;;;;;;;-2.54;72.21;100050.91;5036019;28;20028;-51
2021/12/27 01:09:52;;;;;;;8.82;6.18;;;;;;;-2.53;72.42;100045.78;5037349;28;20508;-51
2021/12/27 01:12:32;;;;;;;;;;;;;;;-2.52;72.24;100055.28;5035858;28;20033;-52
2021/12/27 01:15:22;;;;;;;9.30;6.15;;;;;;;-2.53;72.03;100057.81;5037971;28;19921;-52
2021/12/27 01:17:49;;;;;;;9.07;5.90;;;;;;;-2.53;72.38;100043.22;5035139;28;20021;-51
2021/12/27 01:20:18;;;;;;;10.00;5.85;;;;;;;-2.54;72.48;100041.44;5019739;28;20022;-52
2021/12/27 01:22:44;;;;;;;8.02;5.38;;;;;;;-2.54;72.37;100038.84;5021516;28;20121;-51
2021/12/27 01:25:12;;;;;;;6.28;5.20;;;;;;;-2.52;72.46;100038.91;5043085;28;20029;-52
2021/12/27 01:27:37;;;;;;;7.97;5.90;;;;;;;-2.52;72.14;100044.97;5036755;28;20075;-52
2021/12/27 01:30:05;;;;;;;8.05;5.45;;;;;;;-2.51;72.18;100035.47;5031290;28;20037;-52
2021/12/27 01:32:36;;;;;;;6.70;5.38;;;;;;;-2.53;72.43;100035.47;5027080;28;20057;-52
2021/12/27 01:35:01;;;;;;;11.23;6.43;;;;;;;-2.52;72.10;100026.88;5032586;28;20057;-52
2021/12/27 01:37:26;;;;;;;6.97;5.80;;;;;;;-2.51;72.48;100031.22;5028500;28;20303;-52
2021/12/27 01:39:58;;;;;;;7.80;5.75;;;;;;;-2.51;72.00;100028.63;5010021;28;20036;-52
2021/12/27 01:42:23;;;;;;;8.98;6.30;;;;;;;-2.52;72.09;100029.47;5027277;28;20025;-51
2021/12/27 01:44:48;;;;;;;8.93;6.07;;;;;;;-2.51;72.61;100018.28;5032118;28;20060;-51
2021/12/27 01:47:14;;;;;;;8.70;6.30;;;;;;;-2.51;72.09;100009.66;5037100;28;20028;-52
2021/12/27 01:49:39;;;;;;;9.90;6.30;;;;;;;-2.51;72.48;100009.66;5032988;28;20021;-51
2021/12/27 01:52:05;;;;;;;7.65;5.97;;;;;;;-2.52;72.34;100006.22;5038429;28;20030;-51
2021/12/27 01:54:32;;;;;;;9.43;6.13;;;;;;;-2.51;72.23;100010.53;5037487;28;20388;-52
2021/12/27 01:56:57;;;;;;;6.00;5.40;;;;;;;-2.53;72.39;100007.06;5031909;28;20033;-51
2021/12/27 01:59:22;;;;;;;8.52;5.88;;;;;;;-2.51;72.73;100004.50;5021282;28;20418;-51
2021/12/27 02:01:48;;;;;;;9.38;6.18;;;;;;;-2.50;72.43;100012.28;5036624;28;20032;-51
2021/12/27 02:04:13;;;;;;;8.75;5.78;;;;;;;-2.51;72.32;100005.38;5032891;28;20100;-51
2021/12/27 02:06:38;;;;;;;9.43;6.22;;;;;;;-2.51;72.44;100005.38;5036270;28;20036;-51
2021/12/27 02:09:04;;;;;;;8.75;5.88;;;;;;;-2.50;72.05;99995.94;5037407;28;20036;-51
2021/12/27 02:11:34;;;;;;;9.73;6.45;;;;;;;-2.50;71.97;99996.78;5022137;28;20034;-52
2021/12/27 02:14:01;;;;;;;7.85;5.30;;;;;;;-2.51;72.28;99989.88;5039741;28;20029;-51
2021/12/27 02:16:27;;;;;;;8.55;5.43;;;;;;;-2.50;72.36;99989.06;5033067;28;20435;-52
2021/12/27 02:18:52;;;;;;;7.95;6.45;;;;;;;-2.49;72.18;99982.19;5033114;28;20041;-51
2021/12/27 02:21:19;;;;;;;7.80;5.88;;;;;;;-2.48;72.41;99973.59;5032006;28;20071;-51
2021/12/27 02:23:45;;;;;;;6.80;5.50;;;;;;;-2.50;72.81;99972.69;5038850;28;20123;-52
2021/12/27 02:26:11;;;;;;;10.35;6.15;;;;;;;-2.48;72.23;99974.50;5037789;28;20132;-52
2021/12/27 02:28:37;;;;;;;8.05;6.32;;;;;;;-2.49;72.19;99966.69;5039304;28;20026;-49
2021/12/27 02:31:02;;;;;;;8.23;5.93;;;;;;;-2.48;72.41;99974.50;5033092;28;20028;-52
2021/12/27 02:33:27;;;;;;;8.82;6.03;;;;;;;-2.47;72.58;99976.25;5031681;28;20022;-51
2021/12/27 02:36:02;;;;;;;7.80;6.10;;;;;;;-2.48;72.34;99971.03;5028234;28;20040;-52
2021/12/27 02:38:30;;;;;;;7.85;6.05;;;;;;;-2.49;72.24;99974.44;5026789;28;20105;-52
2021/12/27 02:40:56;;;;;;;9.35;6.40;;;;;;;-2.47;72.62;99973.66;5016367;28;20032;-51
2021/12/27 02:43:24;;;;;;;8.55;6.22;;;;;;;-2.48;72.85;99973.59;5034603;28;20116;-52
2021/12/27 02:45:55;;;;;;;9.00;6.50;;;;;;;-2.47;72.56;99968.50;5032784;28;20740;-52
2021/12/27 02:48:23;;;;;;;8.32;6.53;;;;;;;-2.49;72.74;99965.00;5034602;28;20045;-52
2021/12/27 02:50:50;;;;;;;8.65;5.60;;;;;;;-2.47;72.80;99971.09;5035404;28;20040;-51
2021/12/27 02:53:15;;;;;;;7.90;6.03;;;;;;;-2.47;72.36;99971.09;5029263;28;20021;-52
2021/12/27 02:55:41;;;;;;;8.38;6.20;;;;;;;-2.47;72.28;99960.75;5033098;28;20116;-51
2021/12/27 02:58:06;;;;;;;7.63;6.07;;;;;;;-2.46;72.58;99957.31;5036052;28;20017;-51
2021/12/27 03:00:41;;;;;;;9.13;6.13;;;;;;;-2.46;72.35;99957.31;5040817;28;20025;-52
2021/12/27 03:03:06;;;;;;;7.22;6.07;;;;;;;-2.43;72.26;99955.69;5040425;28;20021;-51
2021/12/27 03:05:33;;;;;;;9.20;6.18;;;;;;;-2.46;72.31;99954.75;5031450;28;20525;-52
2021/12/27 03:07:59;;;;;;;8.13;6.13;;;;;;;-2.45;72.69;99947.88;5031426;28;20104;-52
2021/12/27 03:10:30;;;;;;;8.38;6.25;;;;;;;-2.46;72.54;99957.31;5034198;28;20104;-52
2021/12/27 03:12:57;;;;;;;8.20;6.50;;;;;;;-2.45;72.64;99948.78;5031783;28;20029;-51
2021/12/27 03:15:23;;;;;;;10.63;6.25;;;;;;;-2.45;72.50;99947.88;5028275;28;20029;-51
2021/12/27 03:17:51;;;;;;;7.68;6.05;;;;;;;-2.46;72.73;99947.00;5032085;28;20060;-52
2021/12/27 03:20:17;;;;;;;8.43;6.15;;;;;;;-2.45;72.31;99943.63;5030678;28;20021;-49
2021/12/27 03:22:43;;;;;;;7.82;6.32;;;;;;;-2.43;72.39;99947.94;5029981;28;20056;-51
2021/12/27 03:25:10;;;;;;;9.35;6.35;;;;;;;-2.45;72.25;99943.63;5017315;28;20483;-52
2021/12/27 03:27:36;;;;;;;7.75;5.55;;;;;;;-2.44;72.56;99939.31;5032652;28;20028;-52
2021/12/27 03:30:07;;;;;;;8.00;5.90;;;;;;;-2.43;72.32;99940.19;5035938;28;20028;-52
2021/12/27 03:32:34;;;;;;;;;;;;;;;-2.42;72.36;99941.94;5031853;28;20037;-50
2021/12/27 03:35:08;;;;;;;7.57;5.47;;;;;;;-2.45;72.41;99937.56;5038660;28;19917;-52
2021/12/27 03:37:34;;;;;;;8.73;5.88;;;;;;;-2.45;72.47;99933.28;5033930;28;20032;-52
2021/12/27 03:39:59;;;;;;;9.23;5.55;;;;;;;-2.44;72.38;99931.56;5035437;28;20136;-51
2021/12/27 03:42:25;;;;;;;7.50;5.80;;;;;;;-2.43;72.99;99929.88;5037019;28;20033;-52
2021/12/27 03:44:50;;;;;;;9.68;6.60;;;;;;;-2.43;72.65;99927.28;5029464;28;20381;-51
2021/12/27 03:47:17;;;;;;;8.23;6.15;;;;;;;-2.44;73.06;99923.81;5026815;28;20032;-51
2021/12/27 03:49:42;;;;;;;7.95;5.53;;;;;;;-2.43;72.77;99924.69;5028533;28;20040;-51
2021/12/27 03:52:08;;;;;;;9.07;6.22;;;;;;;-2.43;72.44;99920.41;5034656;28;20096;-51
2021/12/27 03:54:36;;;;;;;8.27;5.70;;;;;;;-2.44;72.50;99918.66;5033122;28;20024;-51
2021/12/27 03:57:01;;;;;;;7.97;5.97;;;;;;;-2.43;72.94;99915.25;5031237;28;20048;-52
2021/12/27 04:02:11;;;;;;;7.20;5.82;;;;;;;-2.43;72.56;99919.53;5032921;28;20048;-51
2021/12/27 04:04:38;;;;;;;7.57;5.95;;;;;;;-2.42;72.89;99918.69;5015650;28;20025;-51
2021/12/27 04:07:04;;;;;;;8.60;6.15;;;;;;;-2.40;72.78;99919.63;5019358;28;20044;-52
2021/12/27 04:09:29;;;;;;;6.40;5.60;;;;;;;-2.42;72.99;99914.41;5017327;28;20029;-51
2021/12/27 04:11:55;;;;;;;7.75;5.90;;;;;;;-2.41;72.39;99912.72;5034199;28;20060;-51
2021/12/27 04:14:20;;;;;;;9.35;6.18;;;;;;;-2.40;72.65;99909.31;5036452;28;20021;-52
2021/12/27 04:16:46;;;;;;;8.20;5.55;;;;;;;-2.41;72.33;99904.97;5031506;28;20044;-51
2021/12/27 04:19:12;;;;;;;7.20;6.32;;;;;;;-2.39;72.48;99916.22;5033969;28;20528;-51
2021/12/27 04:21:37;;;;;;;8.98;6.32;;;;;;;-2.39;72.48;99919.69;5037467;28;20087;-51
2021/12/27 04:24:03;;;;;;;6.88;5.70;;;;;;;-2.39;72.82;99911.03;5035488;28;20022;-51
2021/12/27 04:26:28;;;;;;;7.97;6.10;;;;;;;-2.39;72.93;99908.47;5040932;28;20089;-51
2021/12/27 04:28:53;;;;;;;9.35;6.32;;;;;;;-2.39;72.87;99905.88;5039926;28;20033;-52
2021/12/27 04:31:19;;;;;;;6.85;5.80;;;;;;;-2.39;72.64;99905.88;5041703;28;20021;-51
2021/12/27 04:33:44;;;;;;;8.20;6.20;;;;;;;-2.40;72.54;99905.00;5035082;28;20079;-51
2021/12/27 04:36:09;;;;;;;8.00;6.20;;;;;;;-2.39;72.53;99900.72;5035957;28;20484;-52
2021/12/27 04:38:35;;;;;;;6.13;5.45;;;;;;;-2.38;72.56;99897.28;5034079;28;20029;-52
2021/12/27 04:41:01;;;;;;;6.97;5.95;;;;;;;-2.38;73.08;99902.47;5035775;28;20835;-52
2021/12/27 04:43:26;;;;;;;8.18;5.78;;;;;;;-2.38;72.95;99897.28;5037996;28;20064;-52
2021/12/27 04:45:54;;;;;;;8.63;6.20;;;;;;;-2.38;72.84;99897.28;5039176;28;20075;-51
2021/12/27 04:48:21;;;;;;;9.45;6.70;;;;;;;-2.37;72.72;99893.91;5036402;28;20391;-51
2021/12/27 04:50:46;;;;;;;10.25;7.07;;;;;;;-2.38;72.93;99882.69;5041624;28;20025;-52
2021/12/27 04:53:11;;;;;;;8.23;6.85;;;;;;;-2.37;72.99;99887.00;5035302;28;20055;-52
2021/12/27 04:55:37;;;;;;;7.88;5.85;;;;;;;-2.37;72.93;99883.56;5044066;28;20021;-52
2021/12/27 04:58:05;;;;;;;8.45;6.53;;;;;;;-2.38;72.62;99877.53;5041373;28;20032;-52
2021/12/27 05:00:31;;;;;;;7.18;6.35;;;;;;;-2.38;72.61;99881.78;5041923;28;20398;-51
2021/12/27 05:02:58;;;;;;;7.20;6.13;;;;;;;-2.36;72.43;99880.16;5028248;28;20048;-51
2021/12/27 05:05:24;;;;;;;9.98;7.05;;;;;;;-2.37;72.80;99876.69;5040424;28;20025;-52
2021/12/27 05:07:49;;;;;;;8.23;6.32;;;;;;;-2.36;73.10;99869.81;5045744;28;20391;-52
2021/12/27 05:10:16;;;;;;;7.45;6.07;;;;;;;-2.36;73.06;99864.66;5035326;28;20032;-52
2021/12/27 05:12:42;;;;;;;6.45;5.80;;;;;;;-2.35;72.68;99866.41;5036528;28;20442;-52
2021/12/27 05:15:07;;;;;;;8.48;5.85;;;;;;;-2.35;72.63;99868.97;5038987;28;20033;-52
2021/12/27 05:17:33;;;;;;;10.45;6.95;;;;;;;-2.36;72.50;99868.13;5035769;28;20098;-51
2021/12/27 05:19:59;;;;;;;11.55;7.40;;;;;;;-2.35;73.23;99861.22;5034248;28;20036;-52
2021/12/27 05:22:24;;;;;;;7.38;6.00;;;;;;;-2.35;72.62;99859.53;5038926;28;20178;-52
2021/12/27 05:24:50;;;;;;;7.85;6.65;;;;;;;-2.35;73.23;99853.47;5037499;28;20546;-51
2021/12/27 05:27:38;;;;;;;11.18;6.97;;;;;;;-2.33;72.75;99857.00;5031287;28;20052;-52
2021/12/27 05:30:04;;;;;;;9.73;6.40;;;;;;;-2.35;72.73;99851.78;5017805;28;20021;-52
2021/12/27 05:32:30;;;;;;;8.77;6.65;;;;;;;-2.34;73.16;99847.47;5038980;28;20090;-51
2021/12/27 05:34:55;;;;;;;8.02;6.30;;;;;;;-2.34;72.64;99842.31;5039294;28;20185;-51
2021/12/27 05:37:20;;;;;;;9.52;7.20;;;;;;;-2.33;72.53;99851.84;5018746;28;20037;-50
2021/12/27 05:39:47;;;;;;;9.38;7.25;;;;;;;-2.35;73.23;99840.56;5033928;28;20048;-50
2021/12/27 05:42:12;;;;;;;8.65;7.05;;;;;;;-2.34;73.12;99834.56;5033493;28;20505;-50
2021/12/27 05:44:38;;;;;;;11.35;7.55;;;;;;;-2.35;73.13;99836.28;5038416;28;20436;-50
2021/12/27 05:47:03;;;;;;;8.95;7.28;;;;;;;-2.33;72.92;99838.91;5030073;28;20116;-50
2021/12/27 05:49:29;;;;;;;7.45;6.40;;;;;;;-2.33;72.90;99836.34;5027883;28;20192;-50
2021/12/27 05:51:54;;;;;;;9.35;6.85;;;;;;;-2.33;72.84;99841.50;5033541;28;20060;-50
2021/12/27 05:54:20;;;;;;;7.75;6.53;;;;;;;-2.33;72.67;99834.59;5032994;28;20109;-50
2021/12/27 05:56:47;;;;;;;10.32;7.00;;;;;;;-2.32;73.16;99841.56;5026894;28;20025;-50
2021/12/27 05:59:13;;;;;;;7.78;6.95;;;;;;;-2.32;73.13;99827.75;5039378;28;20032;-49
2021/12/27 06:01:38;;;;;;;7.88;6.60;;;;;;;-2.32;73.18;99836.38;5028328;28;20026;-50
2021/12/27 06:04:04;;;;;;;9.60;7.20;;;;;;;-2.31;73.28;99837.25;5033420;28;20022;-50
2021/12/27 06:06:29;;;;;;;8.45;6.47;;;;;;;-2.31;73.04;99837.25;5031653;28;20064;-50
2021/12/27 06:08:55;;;;;;;7.97;5.90;;;;;;;-2.33;72.69;99829.44;5032059;28;20167;-50
2021/12/27 06:11:20;;;;;;;9.95;6.80;;;;;;;-2.30;72.78;99823.53;5029825;28;20033;-50
2021/12/27 06:13:46;;;;;;;9.57;7.38;;;;;;;-2.30;72.97;99836.44;5041250;28;20478;-50
2021/12/27 06:16:12;;;;;;;7.97;6.47;;;;;;;-2.32;72.89;99820.88;5031091;28;20340;-50
2021/12/27 06:18:37;;;;;;;7.57;6.05;;;;;;;-2.29;73.06;99821.78;5032723;28;20464;-50
2021/12/27 06:21:04;;;;;;;8.43;6.32;;;;;;;-2.30;72.88;99828.69;5028513;28;20044;-51
2021/12/27 06:23:30;;;;;;;9.40;6.55;;;;;;;-2.29;73.41;99830.44;5031198;28;20074;-50
2021/12/27 06:25:55;;;;;;;8.30;6.88;;;;;;;-2.30;72.89;99828.69;5033034;28;20025;-50
2021/12/27 06:28:21;;;;;;;8.35;6.43;;;;;;;-2.29;73.45;99827.84;5035511;28;20501;-50
2021/12/27 06:30:46;;;;;;;9.20;6.45;;;;;;;-2.29;72.63;99824.38;5025501;28;20034;-51
2021/12/27 06:33:11;;;;;;;8.82;6.65;;;;;;;-2.28;72.97;99815.78;5034472;28;20076;-50
2021/12/27 06:35:37;;;;;;;7.20;5.80;;;;;;;-2.27;73.16;99827.91;5035971;28;20030;-50
2021/12/27 06:38:03;;;;;;;9.13;7.20;;;;;;;-2.29;72.91;99822.69;5029827;28;20380;-50
2021/12/27 06:40:28;;;;;;;8.38;6.65;;;;;;;-2.27;73.00;99830.47;5033992;28;20060;-51
2021/12/27 06:42:54;;;;;;;10.32;7.28;;;;;;;-2.26;73.33;99829.63;5033666;28;20038;-50
2021/12/27 06:45:31;;;;;;;9.48;6.80;;;;;;;-2.28;72.75;99829.59;5028084;28;20034;-50
2021/12/27 06:47:56;;;;;;;10.02;7.45;;;;;;;-2.27;73.52;99828.75;5002135;28;20029;-50
2021/12/27 06:50:23;;;;;;;9.82;7.13;;;;;;;-2.27;72.84;99812.41;5030775;28;20036;-50
2021/12/27 06:52:49;;;;;;;7.25;6.50;;;;;;;-2.27;73.27;99808.09;5028269;28;20074;-50
2021/12/27 06:55:14;;;;;;;11.02;7.60;;;;;;;-2.27;73.26;99813.25;5039508;28;20025;-50
2021/12/27 06:57:40;;;;;;;8.40;6.57;;;;;;;-2.26;72.78;99820.19;5028646;28;20128;-51
2021/12/27 07:00:08;;;;;;;10.15;7.65;;;;;;;-2.25;73.04;99811.59;5028444;28;20494;-50
2021/12/27 07:02:34;;;;;;;9.82;7.85;;;;;;;-2.25;72.80;99811.59;5026954;28;20411;-50
2021/12/27 07:04:59;;;;;;;8.85;6.60;;;;;;;-2.26;73.01;99804.69;5029387;28;20060;-50
2021/12/27 07:07:24;;;;;;;10.30;7.25;;;;;;;-2.25;73.04;99815.88;5035542;28;20021;-50
2021/12/27 07:09:50;;;;;;;10.35;7.05;;;;;;;-2.27;73.19;99802.91;5032411;28;20091;-51
2021/12/27 07:12:15;;;;;;;9.57;7.50;;;;;;;-2.25;72.90;99811.59;5029529;28;20526;-50
2021/12/27 07:14:41;;;;;;;9.30;6.50;;;;;;;-2.24;72.90;99812.47;5011574;28;20080;-50
2021/12/27 07:17:06;;;;;;;9.98;7.07;;;;;;;-2.24;73.14;99817.63;5029975;28;20442;-50
2021/12/27 07:19:31;;;;;;;9.20;6.60;;;;;;;-2.23;72.76;99820.25;5021240;28;20060;-50
2021/12/27 07:21:57;;;;;;;7.65;6.68;;;;;;;-2.23;73.05;99817.66;5026522;28;20025;-50
2021/12/27 07:24:22;;;;;;;8.48;7.55;;;;;;;-2.23;72.95;99814.22;5024727;28;20480;-50
2021/12/27 07:26:49;;;;;;;8.93;6.95;;;;;;;-2.23;73.47;99824.56;5025187;28;20060;-50
2021/12/27 07:29:14;;;;;;;10.18;7.25;;;;;;;-2.23;72.87;99820.25;5030697;28;20025;-50
2021/12/27 07:31:39;;;;;;;7.30;6.15;;;;;;;-2.23;72.96;99825.41;5031437;28;20037;-50
2021/12/27 07:34:05;;;;;;;8.52;6.20;;;;;;;-2.23;73.23;99827.16;5028504;28;20482;-50
2021/12/27 07:36:30;;;;;;;9.77;7.22;;;;;;;-2.22;73.07;99827.19;5025890;28;20091;-50
2021/12/27 07:38:57;;;;;;;10.10;6.95;;;;;;;-2.23;73.51;99807.34;5025225;28;20044;-50
2021/12/27 07:41:22;;;;;;;7.72;6.43;;;;;;;-2.22;73.63;99810.81;5019599;28;20033;-50
2021/12/27 07:43:48;;;;;;;9.27;7.85;;;;;;;-2.22;73.41;99805.63;5028229;28;20176;-50
2021/12/27 07:46:13;;;;;;;9.27;6.97;;;;;;;-2.21;73.01;99808.28;5029944;28;20021;-50
2021/12/27 07:48:38;;;;;;;7.43;6.32;;;;;;;-2.21;73.22;99794.47;5031145;28;20032;-50
2021/12/27 07:51:04;;;;;;;9.38;6.75;;;;;;;-2.21;73.14;99797.06;5033826;28;20032;-50
2021/12/27 07:53:29;;;;;;;7.55;6.22;;;;;;;-2.20;73.12;99801.41;5034656;28;20017;-50
2021/12/27 07:55:54;;;;;;;8.32;5.95;;;;;;;-2.21;73.52;99797.94;5031225;28;20029;-50
2021/12/27 07:58:20;;;;;;;7.70;6.57;;;;;;;-2.22;73.42;99788.44;5037782;28;20086;-50
2021/12/27 08:00:50;;;;;;;10.07;6.57;;;;;;;-2.21;72.94;99797.94;5030032;28;20111;-50
2021/12/27 08:03:18;;;;;;;9.18;6.90;;;;;;;-2.21;73.18;99797.94;5031966;28;20040;-50
2021/12/27 08:05:44;;;;;;;7.95;6.55;;;;;;;-2.22;73.43;99798.78;5027120;28;20021;-50
2021/12/27 08:08:10;;;;;;;10.63;6.68;;;;;;;-2.21;73.40;99803.09;5031577;28;20060;-50
2021/12/27 08:10:35;;;;;;;9.25;6.43;;;;;;;-2.21;72.92;99813.44;5030882;28;20055;-50
2021/12/27 08:13:02;;;;;;;9.32;6.43;;;;;;;-2.18;73.67;99812.66;5008214;28;20077;-51
2021/12/27 08:15:27;;;;;;;7.68;6.72;;;;;;;-2.20;73.37;99802.25;5020583;28;20028;-51
2021/12/27 08:17:53;;;;;;;7.53;6.53;;;;;;;-2.19;73.33;99793.66;5029323;28;20029;-50
2021/12/27 08:20:18;;;;;;;9.70;7.28;;;;;;;-2.18;73.44;99799.72;5028253;28;20025;-50
2021/12/27 08:22:43;;;;;;;10.68;7.32;;;;;;;-2.17;73.52;99803.19;5026246;28;20499;-50
2021/12/27 08:25:09;;;;;;;8.90;7.40;;;;;;;-2.16;73.46;99799.78;5025043;28;20017;-51
2021/12/27 08:27:37;;;;;;;7.82;6.82;;;;;;;-2.15;73.19;99793.75;5020428;28;20407;-51
2021/12/27 08:30:05;;;;;;;8.25;6.35;;;;;;;-2.17;73.11;99796.31;5022872;28;20120;-51
2021/12/27 08:32:32;;;;;;;9.52;7.15;;;;;;;-2.17;73.58;99790.28;5020222;28;20033;-51
2021/12/27 08:34:57;;;;;;;8.55;7.03;;;;;;;-2.16;73.78;99786.84;5008366;28;20029;-51
2021/12/27 08:37:23;;;;;;;10.10;6.90;;;;;;;-2.12;73.86;99793.84;5020009;28;20029;-55
2021/12/27 08:39:48;;;;;;;16.73;8.38;;;;;;;-2.12;74.26;99794.75;5027703;28;20096;-51
2021/12/27 08:42:13;;;;;;;12.70;8.88;;;;;;;-2.09;74.44;99793.94;5026784;28;20109;-52
2021/12/27 08:44:42;;;;;;;10.95;8.25;;;;;;;-2.07;74.21;99797.44;5029487;28;20084;-52
2021/12/27 08:47:08;;;;;;;14.70;8.35;;;;;;;-2.07;74.49;99795.75;5025131;28;20029;-52
2021/12/27 08:49:34;;;;;;;13.02;8.35;;;;;;;-2.08;74.21;99788.84;5005489;28;20056;-52
2021/12/27 08:51:59;;;;;;;14.35;8.07;;;;;;;-2.07;73.96;99794.84;5023362;28;20503;-51
2021/12/27 08:54:24;;;;;;;13.90;8.73;;;;;;;-2.07;73.91;99798.31;5023997;28;20026;-51
2021/12/27 08:56:50;;;;;;;11.73;8.50;;;;;;;-2.05;73.62;99798.38;5020906;28;20123;-52
2021/12/27 08:59:15;;;;;;;11.60;8.05;;;;;;;-2.05;73.85;99795.78;5022762;28;20025;-52
2021/12/27 09:01:40;;;;;;;10.93;7.35;;;;;;;-2.06;73.67;99801.78;5026965;28;20495;-52
2021/12/27 09:04:07;;;;;;;10.98;7.65;;;;;;;-2.04;73.73;99791.50;5027463;28;20103;-51
2021/12/27 09:06:34;;;;;;;14.77;8.43;;;;;;;-2.06;74.22;99800.06;5031365;28;20112;-52
2021/12/27 09:09:02;;;;;;;13.15;8.50;;;;;;;-2.07;74.36;99792.28;5026123;28;20044;-52
2021/12/27 09:11:27;;;;;;;12.35;8.60;;;;;;;-2.04;73.58;99794.94;5028285;28;20018;-52
2021/12/27 09:13:52;;;;;;;11.48;8.02;;;;;;;-2.04;74.14;99800.13;5014592;28;20356;-52
2021/12/27 09:16:18;;;;;;;11.30;8.30;;;;;;;-2.04;73.62;99796.69;5026940;28;20063;-52
2021/12/27 09:18:43;;;;;;;14.93;8.73;;;;;;;-2.04;73.81;99794.09;5029723;28;20029;-52
2021/12/27 09:21:09;;;;;;;10.40;7.45;;;;;;;-2.04;73.78;99792.38;5023370;28;20592;-51
2021/12/27 09:23:34;;;;;;;10.82;8.07;;;;;;;-2.05;74.26;99780.28;5027091;28;20116;-51
2021/12/27 09:26:01;;;;;;;12.13;8.07;;;;;;;-2.03;74.01;99791.56;5023875;28;20036;-51
2021/12/27 09:28:27;;;;;;;11.32;8.35;;;;;;;-2.03;73.81;99788.97;5028051;28;20104;-52
2021/12/27 09:30:53;;;;;;;12.20;7.95;;;;;;;-2.03;73.77;99791.56;5027456;28;20075;-51
2021/12/27 09:33:18;;;;;;;12.05;8.45;;;;;;;-2.02;73.79;99788.13;5028792;28;20025;-52
2021/12/27 09:35:43;;;;;;;10.25;7.82;;;;;;;-2.01;74.14;99783.81;5025571;28;20033;-52
2021/12/27 09:38:09;;;;;;;11.48;8.35;;;;;;;-2.02;74.05;99788.13;5027601;28;20472;-52
2021/12/27 09:40:34;;;;;;;9.50;7.63;;;;;;;-2.01;73.93;99779.53;5028415;28;20025;-52
2021/12/27 09:43:00;;;;;;;12.07;8.65;;;;;;;-2.01;74.21;99773.47;5015744;28;20048;-52
2021/12/27 09:45:26;;;;;;;14.82;8.73;;;;;;;-1.99;73.59;99771.81;5029396;28;20033;-52
2021/12/27 09:47:51;;;;;;;11.88;8.02;;;;;;;-2.01;73.72;99774.38;5023457;28;20499;-49
2021/12/27 09:50:32;;;;;;;11.93;8.30;;;;;;;-2.01;73.98;99766.59;5015082;28;20056;-49
2021/12/27 09:56:19;;;;;;;;;;;;;;;-1.98;73.85;99769.28;5028152;28;20041;-49
2021/12/27 09:58:45;;;;;;;11.88;8.23;;;;;;;-2.02;74.01;99762.28;5007873;28;19913;-49
2021/12/27 10:01:10;;;;;;;15.52;8.57;;;;;;;-2.03;73.75;99757.97;5030798;28;20033;-49
2021/12/27 10:03:54;;;;;;;12.25;8.30;;;;;;;-2.00;74.00;99765.75;5021887;28;20036;-49
2021/12/27 10:06:20;;;;;;;12.35;8.65;;;;;;;-1.99;74.22;99766.66;5020968;28;20516;-50
2021/12/27 10:08:49;;;;;;;10.93;8.65;;;;;;;-1.99;73.82;99772.72;5008944;28;20383;-49
2021/12/27 10:11:20;;;;;;;11.32;8.85;;;;;;;-1.98;74.26;99763.22;5011599;28;20044;-50
2021/12/27 10:14:11;;;;;;;10.25;7.68;;;;;;;-1.99;74.41;99767.53;5026722;28;20101;-49
2021/12/27 10:16:47;;;;;;;10.40;8.23;;;;;;;-1.98;74.30;99769.28;5025912;28;20539;-49
2021/12/27 10:19:16;;;;;;;13.05;8.55;;;;;;;-1.98;74.21;99766.69;5024710;28;20064;-49
2021/12/27 10:21:43;;;;;;;9.32;7.82;;;;;;;-1.98;74.29;99761.53;5009597;28;20037;-49
2021/12/27 10:24:15;;;;;;;13.88;7.90;;;;;;;-1.98;74.40;99756.34;5028126;28;20033;-49
2021/12/27 10:26:42;;;;;;;12.93;8.73;;;;;;;-1.96;73.78;99757.25;5030677;28;20029;-50
2021/12/27 10:29:16;;;;;;;13.10;9.25;;;;;;;-1.97;74.29;99752.94;5029293;28;20029;-49
2021/12/27 10:31:52;;;;;;;15.02;10.02;;;;;;;-1.94;73.76;99750.44;5034192;28;20035;-50
2021/12/27 10:34:28;;;;;;;12.10;8.30;;;;;;;-1.95;74.48;99751.28;5030025;28;20072;-49
2021/12/27 10:37:15;;;;;;;12.30;8.38;;;;;;;-1.94;74.16;99747.84;5024930;28;20562;-50
2021/12/27 10:39:47;;;;;;;11.73;8.45;;;;;;;-1.94;74.30;99745.28;5027001;28;20033;-50
2021/12/27 10:42:15;;;;;;;12.40;9.63;;;;;;;-1.95;74.68;99743.53;5028076;28;20029;-49
2021/12/27 10:44:42;;;;;;;12.43;8.85;;;;;;;-1.91;73.87;99748.78;5021927;28;20037;-48
2021/12/27 10:47:37;;;;;;;11.32;9.63;;;;;;;-1.92;74.07;99736.66;5034455;28;20033;-49
2021/12/27 10:50:18;;;;;;;10.75;8.57;;;;;;;-1.90;73.92;99741.03;5026870;28;20197;-48
2021/12/27 10:52:49;;;;;;;13.70;8.55;;;;;;;-1.90;74.40;99735.88;5024758;28;20029;-48
2021/12/27 10:55:18;;;;;;;13.77;9.60;;;;;;;-1.90;74.66;99735.00;5027850;28;20104;-48
2021/12/27 10:57:43;;;;;;;12.05;8.63;;;;;;;-1.89;74.17;99731.59;5024902;28;20738;-50
2021/12/27 11:00:27;;;;;;;13.35;8.88;;;;;;;-1.88;74.18;99735.91;5014357;28;20052;-49
2021/12/27 11:02:53;;;;;;;11.18;8.63;;;;;;;-1.86;74.57;99729.09;5034803;28;20555;-50
2021/12/27 11:05:24;;;;;;;15.02;9.50;;;;;;;-1.88;74.46;99721.28;5030077;28;20059;-50
2021/12/27 11:07:51;;;;;;;14.07;9.60;;;;;;;-1.87;73.98;99725.63;5009049;28;20068;-49
2021/12/27 11:10:17;;;;;;;14.43;9.07;;;;;;;-1.86;73.91;99726.50;5035214;28;20390;-49
2021/12/27 11:12:42;;;;;;;13.85;9.38;;;;;;;-1.86;74.22;99724.81;5025578;28;20530;-48
2021/12/27 11:15:10;;;;;;;13.27;8.90;;;;;;;-1.87;74.17;99714.44;5026430;28;20369;-48
2021/12/27 11:17:36;;;;;;;12.60;8.68;;;;;;;-1.84;74.54;99717.06;5025158;28;20475;-48
2021/12/27 11:20:05;;;;;;;14.02;9.20;;;;;;;-1.83;74.62;99713.66;5032393;28;20112;-48
2021/12/27 11:22:30;;;;;;;12.20;8.85;;;;;;;-1.83;74.37;99713.66;5027484;28;20034;-48
2021/12/27 11:24:55;;;;;;;11.00;8.75;;;;;;;-1.83;74.71;99704.19;5028512;28;20037;-49
2021/12/27 11:27:20;;;;;;;12.95;9.98;;;;;;;-1.83;74.52;99699.00;5033807;28;21477;-49
2021/12/27 11:30:06;;;;;;;12.50;8.73;;;;;;;-1.81;74.32;99704.22;5037892;28;20502;-49
2021/12/27 11:32:31;;;;;;;13.30;9.07;;;;;;;-1.83;74.31;99706.75;5015174;28;20025;-49
2021/12/27 11:35:10;;;;;;;13.18;9.07;;;;;;;-1.82;74.24;99703.38;5006627;28;20479;-49